| Date | Time | Temp. (oF) | Dew Point (oF) | Rel. Hum. (%) | Press. (in.) | Wind Dir. | Wind Speed (mph) | Hourly Rainfall (in.) |
|
|---|---|---|---|---|---|---|---|---|---|
| 1 | 09/13 | 00:00 | 67 | 61 | 83 | 30.07 | SW | 0 | 0.00 |
| 2 | 09/12 | 23:00 | 70 | 62 | 77 | 30.07 | SW | 0 | 0.00 |
| 3 | 09/12 | 22:00 | 73 | 62 | 70 | 30.07 | SW | 1 | 0.00 |
| 4 | 09/12 | 21:00 | 75 | 62 | 66 | 30.06 | SSW | 1 | 0.00 |
| 5 | 09/12 | 20:00 | 80 | 63 | 57 | 30.05 | SSW | 1 | 0.00 |
| 6 | 09/12 | 19:00 | 85 | 59 | 43 | 30.03 | SW | 2 | 0.00 |
| 7 | 09/12 | 18:00 | 88 | 58 | 37 | 30.02 | SSW | 5 | 0.00 |
| 8 | 09/12 | 17:00 | 90 | 58 | 35 | 30.02 | SSW | 3 | 0.00 |
| 9 | 09/12 | 16:00 | 90 | 58 | 35 | 30.05 | SSW | 4 | 0.00 |
| 10 | 09/12 | 15:00 | 89 | 58 | 36 | 30.07 | NNW | 5 | 0.00 |
| 11 | 09/12 | 14:00 | 88 | 59 | 39 | 30.11 | SW | 1 | 0.00 |
| 12 | 09/12 | 13:00 | 86 | 60 | 43 | 30.14 | WSW | 8 | 0.00 |
| 13 | 09/12 | 12:00 | 82 | 62 | 52 | 30.17 | NW | 1 | 0.00 |
| 14 | 09/12 | 11:00 | 77 | 63 | 63 | 30.20 | W | 7 | 0.00 |
| 15 | 09/12 | 10:00 | 72 | 63 | 74 | 30.22 | S | 3 | 0.00 |
| 16 | 09/12 | 09:00 | 66 | 63 | 93 | 30.23 | WSW | 4 | 0.00 |
| 17 | 09/12 | 08:00 | 59 | 59 | 100 | 30.23 | SW | 0 | 0.00 |
| 18 | 09/12 | 07:00 | 56 | 55 | 98 | 30.23 | SW | 0 | 0.00 |
| 19 | 09/12 | 06:00 | 57 | 56 | 97 | 30.23 | SW | 0 | 0.00 |
| 20 | 09/12 | 05:00 | 58 | 56 | 96 | 30.23 | SW | 0 | 0.00 |
| 21 | 09/12 | 04:00 | 60 | 58 | 95 | 30.24 | SW | 0 | 0.00 |
| 22 | 09/12 | 03:00 | 61 | 58 | 93 | 30.25 | SW | 1 | 0.00 |
| 23 | 09/12 | 02:00 | 62 | 58 | 89 | 30.25 | SSW | 0 | 0.00 |
| 24 | 09/12 | 01:00 | 63 | 60 | 91 | 30.27 | SW | 1 | 0.00 |